Archival Weather

Sydney Intl

Sydney, Australia (YSSY)

Report from: Sunday, March 19, 2023 8:36 AM AEDT
Current time: Wednesday, May 29, 2024 5:58 PM AEST

Current weather – Weather history – Daily summaries
Weather forecast

Present weatherFog patches, mist
Temperature22.0°C (71.6°F)
Dew point21.0°C (69.8°F)
Winds 7 kts (3.6 m/s, 8.1 mph) North-Northwest (330°)
Visibility1.9 mi. (3 km)
Clouds Ceiling: Broken clouds 200 ft. (61 m)
Altimeter30.03 in.Hg (1017 mB)
Relative humidity94 %
Density altitude1,025 ft. (312 m)
Remarks Special weather observation
Flight conditions Low Instrument Meteorological Conditions
Raw dataSPAU31 KWBC 182149 SPECI YSSY 182136Z 33007KT 3000 BCFG BR BKN002 22/21 Q1017 RF00/0/000/0
An error has occurred. This application may no longer respond until reloaded. Reload 🗙